sensor_id;sensor_type;location;lat;lon;timestamp;P1;durP1;ratioP1;P2;durP2;ratioP2
75012;SDS011;63567;49.956;20.130;2023-11-21T00:00:08;6.20;;;3.50;;
75012;SDS011;63567;49.956;20.130;2023-11-21T00:02:37;6.28;;;3.60;;
75012;SDS011;63567;49.956;20.130;2023-11-21T00:05:05;6.03;;;3.55;;
75012;SDS011;63567;49.956;20.130;2023-11-21T00:07:33;5.93;;;3.28;;
75012;SDS011;63567;49.956;20.130;2023-11-21T00:09:58;5.78;;;3.22;;
75012;SDS011;63567;49.956;20.130;2023-11-21T00:12:24;5.53;;;3.47;;
75012;SDS011;63567;49.956;20.130;2023-11-21T00:14:49;5.10;;;3.20;;
75012;SDS011;63567;49.956;20.130;2023-11-21T00:17:15;4.28;;;2.97;;
75012;SDS011;63567;49.956;20.130;2023-11-21T00:19:40;5.23;;;3.10;;
75012;SDS011;63567;49.956;20.130;2023-11-21T00:22:07;5.45;;;2.80;;
75012;SDS011;63567;49.956;20.130;2023-11-21T00:24:33;5.22;;;2.65;;
75012;SDS011;63567;49.956;20.130;2023-11-21T00:26:59;4.50;;;2.97;;
75012;SDS011;63567;49.956;20.130;2023-11-21T00:29:24;5.10;;;2.60;;
75012;SDS011;63567;49.956;20.130;2023-11-21T00:31:50;4.75;;;2.50;;
75012;SDS011;63567;49.956;20.130;2023-11-21T00:34:16;5.05;;;2.40;;
75012;SDS011;63567;49.956;20.130;2023-11-21T00:36:41;4.25;;;2.63;;
75012;SDS011;63567;49.956;20.130;2023-11-21T00:39:07;3.78;;;1.95;;
75012;SDS011;63567;49.956;20.130;2023-11-21T00:41:32;3.63;;;2.40;;
75012;SDS011;63567;49.956;20.130;2023-11-21T00:43:58;4.05;;;2.67;;
75012;SDS011;63567;49.956;20.130;2023-11-21T00:46:24;4.63;;;2.70;;
75012;SDS011;63567;49.956;20.130;2023-11-21T00:48:52;3.85;;;2.35;;
75012;SDS011;63567;49.956;20.130;2023-11-21T00:51:19;4.30;;;2.33;;
75012;SDS011;63567;49.956;20.130;2023-11-21T00:53:44;3.92;;;2.50;;
75012;SDS011;63567;49.956;20.130;2023-11-21T00:56:09;4.40;;;2.50;;
75012;SDS011;63567;49.956;20.130;2023-11-21T00:58:35;5.07;;;2.53;;
75012;SDS011;63567;49.956;20.130;2023-11-21T01:01:00;3.43;;;2.27;;
75012;SDS011;63567;49.956;20.130;2023-11-21T01:03:25;4.27;;;2.53;;
75012;SDS011;63567;49.956;20.130;2023-11-21T01:05:51;4.53;;;2.73;;
75012;SDS011;63567;49.956;20.130;2023-11-21T01:08:16;4.07;;;2.60;;
75012;SDS011;63567;49.956;20.130;2023-11-21T01:10:41;3.47;;;2.60;;
75012;SDS011;63567;49.956;20.130;2023-11-21T01:13:07;3.47;;;2.23;;
75012;SDS011;63567;49.956;20.130;2023-11-21T01:15:32;3.78;;;2.35;;
75012;SDS011;63567;49.956;20.130;2023-11-21T01:17:58;4.32;;;2.17;;
75012;SDS011;63567;49.956;20.130;2023-11-21T01:20:24;3.50;;;2.30;;
75012;SDS011;63567;49.956;20.130;2023-11-21T01:22:49;3.87;;;2.57;;
75012;SDS011;63567;49.956;20.130;2023-11-21T01:25:14;4.47;;;2.87;;
75012;SDS011;63567;49.956;20.130;2023-11-21T01:27:41;4.32;;;2.55;;
75012;SDS011;63567;49.956;20.130;2023-11-21T01:30:07;3.78;;;2.33;;
75012;SDS011;63567;49.956;20.130;2023-11-21T01:32:34;4.78;;;2.70;;
75012;SDS011;63567;49.956;20.130;2023-11-21T01:34:59;3.53;;;2.30;;
75012;SDS011;63567;49.956;20.130;2023-11-21T01:37:25;4.45;;;2.85;;
75012;SDS011;63567;49.956;20.130;2023-11-21T01:39:53;5.40;;;3.28;;
75012;SDS011;63567;49.956;20.130;2023-11-21T01:42:20;5.40;;;3.20;;
75012;SDS011;63567;49.956;20.130;2023-11-21T01:44:46;4.80;;;3.50;;
75012;SDS011;63567;49.956;20.130;2023-11-21T01:47:11;5.30;;;3.45;;
75012;SDS011;63567;49.956;20.130;2023-11-21T01:49:38;6.68;;;3.70;;
75012;SDS011;63567;49.956;20.130;2023-11-21T01:52:04;5.43;;;3.60;;
75012;SDS011;63567;49.956;20.130;2023-11-21T01:54:30;6.47;;;3.38;;
75012;SDS011;63567;49.956;20.130;2023-11-21T01:56:57;7.70;;;3.97;;
75012;SDS011;63567;49.956;20.130;2023-11-21T01:59:34;5.47;;;3.58;;
75012;SDS011;63567;49.956;20.130;2023-11-21T02:02:01;6.88;;;3.67;;
75012;SDS011;63567;49.956;20.130;2023-11-21T02:04:34;6.35;;;3.65;;
75012;SDS011;63567;49.956;20.130;2023-11-21T02:07:00;5.38;;;3.63;;
75012;SDS011;63567;49.956;20.130;2023-11-21T02:09:26;5.57;;;2.92;;
75012;SDS011;63567;49.956;20.130;2023-11-21T02:11:52;4.43;;;2.80;;
75012;SDS011;63567;49.956;20.130;2023-11-21T02:14:19;4.18;;;3.10;;
75012;SDS011;63567;49.956;20.130;2023-11-21T02:16:47;5.25;;;2.60;;
75012;SDS011;63567;49.956;20.130;2023-11-21T02:19:14;4.55;;;2.80;;
75012;SDS011;63567;49.956;20.130;2023-11-21T02:21:44;5.80;;;3.38;;
75012;SDS011;63567;49.956;20.130;2023-11-21T02:24:10;5.30;;;2.70;;
75012;SDS011;63567;49.956;20.130;2023-11-21T02:26:36;4.67;;;2.60;;
75012;SDS011;63567;49.956;20.130;2023-11-21T02:29:01;4.60;;;2.87;;
75012;SDS011;63567;49.956;20.130;2023-11-21T02:31:29;4.60;;;2.90;;
75012;SDS011;63567;49.956;20.130;2023-11-21T02:33:55;5.32;;;2.90;;
75012;SDS011;63567;49.956;20.130;2023-11-21T02:36:20;4.53;;;3.22;;
75012;SDS011;63567;49.956;20.130;2023-11-21T02:38:46;4.20;;;2.80;;
75012;SDS011;63567;49.956;20.130;2023-11-21T02:41:12;5.35;;;2.85;;
75012;SDS011;63567;49.956;20.130;2023-11-21T02:43:38;6.47;;;2.97;;
75012;SDS011;63567;49.956;20.130;2023-11-21T02:46:04;7.18;;;3.40;;
75012;SDS011;63567;49.956;20.130;2023-11-21T02:48:29;5.70;;;3.15;;
75012;SDS011;63567;49.956;20.130;2023-11-21T02:50:55;4.10;;;2.65;;
75012;SDS011;63567;49.956;20.130;2023-11-21T02:53:21;5.57;;;2.58;;
75012;SDS011;63567;49.956;20.130;2023-11-21T02:55:46;5.10;;;2.83;;
75012;SDS011;63567;49.956;20.130;2023-11-21T02:58:11;4.35;;;2.83;;
75012;SDS011;63567;49.956;20.130;2023-11-21T03:00:37;5.00;;;3.30;;
75012;SDS011;63567;49.956;20.130;2023-11-21T03:03:02;4.00;;;3.03;;
75012;SDS011;63567;49.956;20.130;2023-11-21T03:05:29;4.38;;;2.70;;
75012;SDS011;63567;49.956;20.130;2023-11-21T03:07:54;6.80;;;3.53;;
75012;SDS011;63567;49.956;20.130;2023-11-21T03:10:20;5.05;;;3.03;;
75012;SDS011;63567;49.956;20.130;2023-11-21T03:12:45;4.93;;;3.00;;
75012;SDS011;63567;49.956;20.130;2023-11-21T03:15:11;4.80;;;2.83;;
75012;SDS011;63567;49.956;20.130;2023-11-21T03:17:36;5.00;;;2.80;;
75012;SDS011;63567;49.956;20.130;2023-11-21T03:20:02;5.18;;;2.72;;
75012;SDS011;63567;49.956;20.130;2023-11-21T03:22:28;5.55;;;2.88;;
75012;SDS011;63567;49.956;20.130;2023-11-21T03:24:54;4.37;;;2.93;;
75012;SDS011;63567;49.956;20.130;2023-11-21T03:27:19;5.23;;;2.40;;
75012;SDS011;63567;49.956;20.130;2023-11-21T03:29:44;5.07;;;2.63;;
75012;SDS011;63567;49.956;20.130;2023-11-21T03:32:11;3.75;;;2.38;;
75012;SDS011;63567;49.956;20.130;2023-11-21T03:34:48;4.50;;;2.40;;
75012;SDS011;63567;49.956;20.130;2023-11-21T03:37:19;3.70;;;2.13;;
75012;SDS011;63567;49.956;20.130;2023-11-21T03:39:45;4.00;;;2.60;;
75012;SDS011;63567;49.956;20.130;2023-11-21T03:42:11;5.45;;;2.65;;
75012;SDS011;63567;49.956;20.130;2023-11-21T03:44:36;3.80;;;2.30;;
75012;SDS011;63567;49.956;20.130;2023-11-21T03:47:01;4.47;;;2.47;;
75012;SDS011;63567;49.956;20.130;2023-11-21T03:49:27;4.00;;;2.20;;
75012;SDS011;63567;49.956;20.130;2023-11-21T03:51:54;4.22;;;2.30;;
75012;SDS011;63567;49.956;20.130;2023-11-21T03:54:19;3.65;;;2.33;;
75012;SDS011;63567;49.956;20.130;2023-11-21T03:56:45;5.30;;;2.10;;
75012;SDS011;63567;49.956;20.130;2023-11-21T03:59:10;4.10;;;2.50;;
75012;SDS011;63567;49.956;20.130;2023-11-21T04:01:36;4.80;;;2.55;;
75012;SDS011;63567;49.956;20.130;2023-11-21T04:04:02;4.30;;;2.60;;
75012;SDS011;63567;49.956;20.130;2023-11-21T04:06:27;4.65;;;2.28;;
75012;SDS011;63567;49.956;20.130;2023-11-21T04:08:52;5.23;;;2.77;;
75012;SDS011;63567;49.956;20.130;2023-11-21T04:11:18;4.13;;;2.33;;
75012;SDS011;63567;49.956;20.130;2023-11-21T04:13:43;3.67;;;2.60;;
75012;SDS011;63567;49.956;20.130;2023-11-21T04:16:09;4.70;;;2.65;;
75012;SDS011;63567;49.956;20.130;2023-11-21T04:18:37;3.90;;;2.10;;
75012;SDS011;63567;49.956;20.130;2023-11-21T04:21:04;4.57;;;2.60;;
75012;SDS011;63567;49.956;20.130;2023-11-21T04:23:30;4.90;;;2.70;;
75012;SDS011;63567;49.956;20.130;2023-11-21T04:25:56;5.20;;;2.35;;
75012;SDS011;63567;49.956;20.130;2023-11-21T04:28:23;4.70;;;2.20;;
75012;SDS011;63567;49.956;20.130;2023-11-21T04:30:49;6.03;;;2.70;;
75012;SDS011;63567;49.956;20.130;2023-11-21T04:33:15;4.07;;;2.38;;
75012;SDS011;63567;49.956;20.130;2023-11-21T04:35:41;5.32;;;2.70;;
75012;SDS011;63567;49.956;20.130;2023-11-21T04:38:06;5.82;;;2.45;;
75012;SDS011;63567;49.956;20.130;2023-11-21T04:40:31;5.07;;;3.00;;
75012;SDS011;63567;49.956;20.130;2023-11-21T04:42:57;4.53;;;2.60;;
75012;SDS011;63567;49.956;20.130;2023-11-21T04:45:22;4.77;;;2.93;;
75012;SDS011;63567;49.956;20.130;2023-11-21T04:47:48;5.45;;;2.70;;
75012;SDS011;63567;49.956;20.130;2023-11-21T04:50:13;4.30;;;2.60;;
75012;SDS011;63567;49.956;20.130;2023-11-21T04:52:38;5.00;;;2.80;;
75012;SDS011;63567;49.956;20.130;2023-11-21T04:55:04;6.05;;;2.60;;
75012;SDS011;63567;49.956;20.130;2023-11-21T04:57:31;4.20;;;2.42;;
75012;SDS011;63567;49.956;20.130;2023-11-21T04:59:57;5.63;;;3.13;;
75012;SDS011;63567;49.956;20.130;2023-11-21T05:02:22;4.97;;;2.80;;
75012;SDS011;63567;49.956;20.130;2023-11-21T05:04:47;4.53;;;2.63;;
75012;SDS011;63567;49.956;20.130;2023-11-21T05:07:13;5.22;;;3.15;;
75012;SDS011;63567;49.956;20.130;2023-11-21T05:09:42;4.70;;;2.78;;
75012;SDS011;63567;49.956;20.130;2023-11-21T05:12:09;4.80;;;2.97;;
75012;SDS011;63567;49.956;20.130;2023-11-21T05:14:34;4.45;;;2.85;;
75012;SDS011;63567;49.956;20.130;2023-11-21T05:17:00;5.23;;;2.77;;
75012;SDS011;63567;49.956;20.130;2023-11-21T05:19:26;5.10;;;3.20;;
75012;SDS011;63567;49.956;20.130;2023-11-21T05:21:51;5.47;;;3.30;;
75012;SDS011;63567;49.956;20.130;2023-11-21T05:24:17;6.80;;;3.73;;
75012;SDS011;63567;49.956;20.130;2023-11-21T05:26:42;6.90;;;3.67;;
75012;SDS011;63567;49.956;20.130;2023-11-21T05:29:07;9.63;;;3.97;;
75012;SDS011;63567;49.956;20.130;2023-11-21T05:31:35;6.70;;;3.38;;
75012;SDS011;63567;49.956;20.130;2023-11-21T05:34:01;7.05;;;3.83;;
75012;SDS011;63567;49.956;20.130;2023-11-21T05:36:26;7.83;;;3.53;;
75012;SDS011;63567;49.956;20.130;2023-11-21T05:38:52;5.60;;;3.63;;
75012;SDS011;63567;49.956;20.130;2023-11-21T05:41:17;6.07;;;3.63;;
75012;SDS011;63567;49.956;20.130;2023-11-21T05:43:42;5.93;;;3.50;;
75012;SDS011;63567;49.956;20.130;2023-11-21T05:46:08;5.57;;;3.60;;
75012;SDS011;63567;49.956;20.130;2023-11-21T05:48:34;5.22;;;2.97;;
75012;SDS011;63567;49.956;20.130;2023-11-21T05:51:01;4.35;;;3.10;;
75012;SDS011;63567;49.956;20.130;2023-11-21T05:53:29;4.95;;;3.22;;
75012;SDS011;63567;49.956;20.130;2023-11-21T05:55:55;5.40;;;3.00;;
75012;SDS011;63567;49.956;20.130;2023-11-21T05:58:20;6.03;;;3.60;;
75012;SDS011;63567;49.956;20.130;2023-11-21T06:00:45;6.83;;;3.57;;
75012;SDS011;63567;49.956;20.130;2023-11-21T06:03:11;5.87;;;3.80;;
75012;SDS011;63567;49.956;20.130;2023-11-21T06:05:37;5.93;;;3.70;;
75012;SDS011;63567;49.956;20.130;2023-11-21T06:08:02;6.90;;;4.17;;
75012;SDS011;63567;49.956;20.130;2023-11-21T06:10:28;7.25;;;3.70;;
75012;SDS011;63567;49.956;20.130;2023-11-21T06:12:53;6.07;;;3.80;;
75012;SDS011;63567;49.956;20.130;2023-11-21T06:15:19;6.82;;;4.40;;
75012;SDS011;63567;49.956;20.130;2023-11-21T06:17:46;7.57;;;4.10;;
75012;SDS011;63567;49.956;20.130;2023-11-21T06:20:14;7.28;;;4.50;;
75012;SDS011;63567;49.956;20.130;2023-11-21T06:22:41;7.18;;;4.20;;
75012;SDS011;63567;49.956;20.130;2023-11-21T06:25:08;6.72;;;4.28;;
75012;SDS011;63567;49.956;20.130;2023-11-21T06:27:38;7.75;;;5.05;;
75012;SDS011;63567;49.956;20.130;2023-11-21T06:30:04;7.72;;;4.82;;
75012;SDS011;63567;49.956;20.130;2023-11-21T06:32:31;8.38;;;5.25;;
75012;SDS011;63567;49.956;20.130;2023-11-21T06:34:56;8.23;;;5.70;;
75012;SDS011;63567;49.956;20.130;2023-11-21T06:37:25;6.82;;;4.60;;
75012;SDS011;63567;49.956;20.130;2023-11-21T06:39:52;6.68;;;4.50;;
75012;SDS011;63567;49.956;20.130;2023-11-21T06:42:17;8.70;;;5.30;;
75012;SDS011;63567;49.956;20.130;2023-11-21T06:44:44;8.50;;;4.57;;
75012;SDS011;63567;49.956;20.130;2023-11-21T06:47:10;8.93;;;5.22;;
75012;SDS011;63567;49.956;20.130;2023-11-21T06:49:36;8.00;;;5.03;;
75012;SDS011;63567;49.956;20.130;2023-11-21T06:52:01;8.23;;;5.07;;
75012;SDS011;63567;49.956;20.130;2023-11-21T06:54:28;7.35;;;4.53;;
75012;SDS011;63567;49.956;20.130;2023-11-21T06:56:54;8.98;;;5.35;;
75012;SDS011;63567;49.956;20.130;2023-11-21T06:59:21;8.65;;;5.30;;
75012;SDS011;63567;49.956;20.130;2023-11-21T07:01:47;8.95;;;5.30;;
75012;SDS011;63567;49.956;20.130;2023-11-21T07:04:12;6.57;;;5.00;;
75012;SDS011;63567;49.956;20.130;2023-11-21T07:06:38;7.47;;;4.63;;
75012;SDS011;63567;49.956;20.130;2023-11-21T07:09:03;8.38;;;4.90;;
75012;SDS011;63567;49.956;20.130;2023-11-21T07:11:29;8.00;;;5.30;;
75012;SDS011;63567;49.956;20.130;2023-11-21T07:13:54;7.27;;;4.63;;
75012;SDS011;63567;49.956;20.130;2023-11-21T07:16:19;7.40;;;4.50;;
75012;SDS011;63567;49.956;20.130;2023-11-21T07:18:44;8.07;;;4.90;;
75012;SDS011;63567;49.956;20.130;2023-11-21T07:21:10;6.15;;;4.03;;
75012;SDS011;63567;49.956;20.130;2023-11-21T07:23:40;6.82;;;4.30;;
75012;SDS011;63567;49.956;20.130;2023-11-21T07:26:05;7.78;;;4.75;;
75012;SDS011;63567;49.956;20.130;2023-11-21T07:28:34;7.40;;;4.65;;
75012;SDS011;63567;49.956;20.130;2023-11-21T07:31:00;7.03;;;4.85;;
75012;SDS011;63567;49.956;20.130;2023-11-21T07:33:25;9.00;;;4.60;;
75012;SDS011;63567;49.956;20.130;2023-11-21T07:35:51;6.47;;;4.23;;
75012;SDS011;63567;49.956;20.130;2023-11-21T07:38:16;7.18;;;4.18;;
75012;SDS011;63567;49.956;20.130;2023-11-21T07:40:42;6.97;;;4.40;;
75012;SDS011;63567;49.956;20.130;2023-11-21T07:43:08;7.72;;;4.80;;
75012;SDS011;63567;49.956;20.130;2023-11-21T07:45:34;8.10;;;4.47;;
75012;SDS011;63567;49.956;20.130;2023-11-21T07:47:59;7.30;;;4.28;;
75012;SDS011;63567;49.956;20.130;2023-11-21T07:50:25;7.28;;;3.47;;
75012;SDS011;63567;49.956;20.130;2023-11-21T07:52:51;7.15;;;4.20;;
75012;SDS011;63567;49.956;20.130;2023-11-21T07:55:19;6.10;;;4.00;;
75012;SDS011;63567;49.956;20.130;2023-11-21T07:57:44;5.47;;;3.95;;
75012;SDS011;63567;49.956;20.130;2023-11-21T08:00:10;8.13;;;4.30;;
75012;SDS011;63567;49.956;20.130;2023-11-21T08:02:37;9.48;;;5.15;;
75012;SDS011;63567;49.956;20.130;2023-11-21T08:05:03;8.38;;;5.00;;
75012;SDS011;63567;49.956;20.130;2023-11-21T08:07:29;7.55;;;4.43;;
75012;SDS011;63567;49.956;20.130;2023-11-21T08:09:54;7.53;;;4.83;;
75012;SDS011;63567;49.956;20.130;2023-11-21T08:12:19;6.97;;;4.47;;
75012;SDS011;63567;49.956;20.130;2023-11-21T08:14:45;6.75;;;5.00;;
75012;SDS011;63567;49.956;20.130;2023-11-21T08:17:10;7.38;;;4.78;;
75012;SDS011;63567;49.956;20.130;2023-11-21T08:19:36;7.05;;;5.22;;
75012;SDS011;63567;49.956;20.130;2023-11-21T08:22:02;8.63;;;5.15;;
75012;SDS011;63567;49.956;20.130;2023-11-21T08:24:28;9.65;;;6.15;;
75012;SDS011;63567;49.956;20.130;2023-11-21T08:26:53;9.30;;;6.00;;
75012;SDS011;63567;49.956;20.130;2023-11-21T08:29:19;9.23;;;5.90;;
75012;SDS011;63567;49.956;20.130;2023-11-21T08:31:44;9.95;;;6.35;;
75012;SDS011;63567;49.956;20.130;2023-11-21T08:34:13;9.65;;;6.32;;
75012;SDS011;63567;49.956;20.130;2023-11-21T08:36:42;8.25;;;5.38;;
75012;SDS011;63567;49.956;20.130;2023-11-21T08:39:08;10.27;;;6.75;;
75012;SDS011;63567;49.956;20.130;2023-11-21T08:41:34;11.70;;;6.03;;
75012;SDS011;63567;49.956;20.130;2023-11-21T08:44:01;9.50;;;6.25;;
75012;SDS011;63567;49.956;20.130;2023-11-21T08:46:27;7.82;;;5.32;;
75012;SDS011;63567;49.956;20.130;2023-11-21T08:48:52;7.03;;;4.93;;
75012;SDS011;63567;49.956;20.130;2023-11-21T08:51:18;7.50;;;4.95;;
75012;SDS011;63567;49.956;20.130;2023-11-21T08:53:43;8.52;;;5.68;;
75012;SDS011;63567;49.956;20.130;2023-11-21T08:56:12;9.82;;;6.30;;
75012;SDS011;63567;49.956;20.130;2023-11-21T08:58:41;7.80;;;5.00;;
75012;SDS011;63567;49.956;20.130;2023-11-21T09:01:06;8.07;;;5.80;;
75012;SDS011;63567;49.956;20.130;2023-11-21T09:03:32;9.68;;;5.72;;
75012;SDS011;63567;49.956;20.130;2023-11-21T09:05:59;7.85;;;5.10;;
75012;SDS011;63567;49.956;20.130;2023-11-21T09:08:25;9.30;;;5.28;;
75012;SDS011;63567;49.956;20.130;2023-11-21T09:10:50;9.10;;;5.60;;
75012;SDS011;63567;49.956;20.130;2023-11-21T09:13:15;10.47;;;6.83;;
75012;SDS011;63567;49.956;20.130;2023-11-21T09:15:41;11.25;;;6.28;;
75012;SDS011;63567;49.956;20.130;2023-11-21T09:18:11;9.85;;;5.40;;
75012;SDS011;63567;49.956;20.130;2023-11-21T09:20:40;10.63;;;6.32;;
75012;SDS011;63567;49.956;20.130;2023-11-21T09:23:05;9.15;;;6.47;;
75012;SDS011;63567;49.956;20.130;2023-11-21T09:25:32;8.98;;;6.15;;
75012;SDS011;63567;49.956;20.130;2023-11-21T09:27:57;11.15;;;6.85;;
75012;SDS011;63567;49.956;20.130;2023-11-21T09:30:23;9.50;;;6.30;;
75012;SDS011;63567;49.956;20.130;2023-11-21T09:32:49;10.70;;;7.18;;
75012;SDS011;63567;49.956;20.130;2023-11-21T09:35:15;9.90;;;6.30;;
75012;SDS011;63567;49.956;20.130;2023-11-21T09:37:42;10.30;;;6.72;;
75012;SDS011;63567;49.956;20.130;2023-11-21T09:40:10;11.13;;;6.38;;
75012;SDS011;63567;49.956;20.130;2023-11-21T09:43:13;9.75;;;6.82;;
75012;SDS011;63567;49.956;20.130;2023-11-21T09:45:54;12.65;;;7.13;;
75012;SDS011;63567;49.956;20.130;2023-11-21T09:48:25;11.15;;;8.05;;
75012;SDS011;63567;49.956;20.130;2023-11-21T09:50:51;12.02;;;7.32;;
75012;SDS011;63567;49.956;20.130;2023-11-21T09:53:19;10.15;;;6.90;;
75012;SDS011;63567;49.956;20.130;2023-11-21T09:55:50;11.80;;;7.70;;
75012;SDS011;63567;49.956;20.130;2023-11-21T09:58:17;10.85;;;7.78;;
75012;SDS011;63567;49.956;20.130;2023-11-21T10:00:44;12.18;;;7.55;;
75012;SDS011;63567;49.956;20.130;2023-11-21T10:03:11;12.60;;;7.60;;
75012;SDS011;63567;49.956;20.130;2023-11-21T10:05:37;10.98;;;7.63;;
75012;SDS011;63567;49.956;20.130;2023-11-21T10:08:07;12.93;;;7.63;;
75012;SDS011;63567;49.956;20.130;2023-11-21T10:10:35;11.38;;;7.35;;
75012;SDS011;63567;49.956;20.130;2023-11-21T10:13:02;12.77;;;8.57;;
75012;SDS011;63567;49.956;20.130;2023-11-21T10:15:31;12.70;;;8.27;;
75012;SDS011;63567;49.956;20.130;2023-11-21T10:17:59;11.65;;;7.93;;
75012;SDS011;63567;49.956;20.130;2023-11-21T10:20:28;11.95;;;7.75;;
75012;SDS011;63567;49.956;20.130;2023-11-21T10:22:54;12.27;;;7.53;;
75012;SDS011;63567;49.956;20.130;2023-11-21T10:25:21;13.00;;;8.18;;
75012;SDS011;63567;49.956;20.130;2023-11-21T10:27:48;12.45;;;7.43;;
75012;SDS011;63567;49.956;20.130;2023-11-21T10:30:17;12.95;;;7.57;;
75012;SDS011;63567;49.956;20.130;2023-11-21T10:32:43;13.18;;;7.10;;
75012;SDS011;63567;49.956;20.130;2023-11-21T10:35:08;10.38;;;7.00;;
75012;SDS011;63567;49.956;20.130;2023-11-21T10:37:37;13.52;;;7.50;;
75012;SDS011;63567;49.956;20.130;2023-11-21T10:40:08;11.38;;;7.35;;
75012;SDS011;63567;49.956;20.130;2023-11-21T10:45:03;13.45;;;7.10;;
75012;SDS011;63567;49.956;20.130;2023-11-21T10:47:34;12.85;;;7.18;;
75012;SDS011;63567;49.956;20.130;2023-11-21T10:50:01;12.15;;;7.05;;
75012;SDS011;63567;49.956;20.130;2023-11-21T10:52:27;13.27;;;7.47;;
75012;SDS011;63567;49.956;20.130;2023-11-21T10:54:52;11.93;;;7.22;;
75012;SDS011;63567;49.956;20.130;2023-11-21T10:57:18;11.23;;;7.20;;
75012;SDS011;63567;49.956;20.130;2023-11-21T10:59:48;11.05;;;6.50;;
75012;SDS011;63567;49.956;20.130;2023-11-21T11:02:24;12.05;;;7.25;;
75012;SDS011;63567;49.956;20.130;2023-11-21T11:04:53;10.60;;;6.43;;
75012;SDS011;63567;49.956;20.130;2023-11-21T11:07:25;12.20;;;6.80;;
75012;SDS011;63567;49.956;20.130;2023-11-21T11:09:53;12.13;;;7.35;;
75012;SDS011;63567;49.956;20.130;2023-11-21T11:12:20;14.75;;;6.90;;
75012;SDS011;63567;49.956;20.130;2023-11-21T11:14:45;12.25;;;6.68;;
75012;SDS011;63567;49.956;20.130;2023-11-21T11:17:12;13.13;;;8.23;;
75012;SDS011;63567;49.956;20.130;2023-11-21T11:19:38;13.30;;;7.70;;
75012;SDS011;63567;49.956;20.130;2023-11-21T11:25:35;14.50;;;7.80;;
75012;SDS011;63567;49.956;20.130;2023-11-21T11:28:11;10.90;;;6.50;;
75012;SDS011;63567;49.956;20.130;2023-11-21T11:33:39;13.13;;;7.50;;
75012;SDS011;63567;49.956;20.130;2023-11-21T11:38:52;11.75;;;6.93;;
75012;SDS011;63567;49.956;20.130;2023-11-21T11:41:25;10.98;;;6.53;;
75012;SDS011;63567;49.956;20.130;2023-11-21T11:43:52;9.38;;;5.20;;
75012;SDS011;63567;49.956;20.130;2023-11-21T11:46:18;10.00;;;5.78;;
75012;SDS011;63567;49.956;20.130;2023-11-21T11:48:46;9.57;;;5.20;;
75012;SDS011;63567;49.956;20.130;2023-11-21T11:51:14;10.32;;;5.50;;
75012;SDS011;63567;49.956;20.130;2023-11-21T11:53:42;9.15;;;5.45;;
75012;SDS011;63567;49.956;20.130;2023-11-21T11:56:29;10.18;;;5.93;;
75012;SDS011;63567;49.956;20.130;2023-11-21T11:59:01;9.48;;;5.70;;
75012;SDS011;63567;49.956;20.130;2023-11-21T12:01:29;9.40;;;5.38;;
75012;SDS011;63567;49.956;20.130;2023-11-21T12:06:42;9.40;;;6.47;;
75012;SDS011;63567;49.956;20.130;2023-11-21T12:09:12;10.13;;;5.82;;
75012;SDS011;63567;49.956;20.130;2023-11-21T12:14:09;10.23;;;5.70;;
75012;SDS011;63567;49.956;20.130;2023-11-21T12:16:34;9.48;;;4.90;;
75012;SDS011;63567;49.956;20.130;2023-11-21T12:19:00;9.85;;;5.85;;
75012;SDS011;63567;49.956;20.130;2023-11-21T12:21:25;10.20;;;6.40;;
75012;SDS011;63567;49.956;20.130;2023-11-21T12:23:51;8.93;;;4.93;;
75012;SDS011;63567;49.956;20.130;2023-11-21T12:26:16;8.40;;;5.47;;
75012;SDS011;63567;49.956;20.130;2023-11-21T12:28:42;7.68;;;5.43;;
75012;SDS011;63567;49.956;20.130;2023-11-21T12:31:08;8.75;;;4.80;;
75012;SDS011;63567;49.956;20.130;2023-11-21T12:33:34;9.80;;;5.03;;
75012;SDS011;63567;49.956;20.130;2023-11-21T12:36:00;8.88;;;4.82;;
75012;SDS011;63567;49.956;20.130;2023-11-21T12:38:25;9.77;;;5.70;;
75012;SDS011;63567;49.956;20.130;2023-11-21T12:40:59;7.85;;;5.00;;
75012;SDS011;63567;49.956;20.130;2023-11-21T12:43:24;8.60;;;5.10;;
75012;SDS011;63567;49.956;20.130;2023-11-21T12:45:49;7.82;;;5.80;;
75012;SDS011;63567;49.956;20.130;2023-11-21T12:48:15;10.07;;;5.50;;
75012;SDS011;63567;49.956;20.130;2023-11-21T12:50:42;9.48;;;5.90;;
75012;SDS011;63567;49.956;20.130;2023-11-21T12:53:11;8.85;;;5.10;;
75012;SDS011;63567;49.956;20.130;2023-11-21T12:55:43;9.18;;;5.80;;
75012;SDS011;63567;49.956;20.130;2023-11-21T12:58:14;10.00;;;6.35;;
75012;SDS011;63567;49.956;20.130;2023-11-21T13:00:47;9.45;;;6.07;;
75012;SDS011;63567;49.956;20.130;2023-11-21T13:03:14;8.60;;;5.15;;
75012;SDS011;63567;49.956;20.130;2023-11-21T13:05:42;10.02;;;6.38;;
75012;SDS011;63567;49.956;20.130;2023-11-21T13:08:15;10.18;;;6.70;;
75012;SDS011;63567;49.956;20.130;2023-11-21T13:10:44;10.55;;;6.53;;
75012;SDS011;63567;49.956;20.130;2023-11-21T13:13:12;9.18;;;5.47;;
75012;SDS011;63567;49.956;20.130;2023-11-21T13:15:48;7.97;;;5.57;;
75012;SDS011;63567;49.956;20.130;2023-11-21T13:18:16;8.15;;;5.35;;
75012;SDS011;63567;49.956;20.130;2023-11-21T13:20:42;9.00;;;5.43;;
75012;SDS011;63567;49.956;20.130;2023-11-21T13:23:08;8.38;;;5.55;;
75012;SDS011;63567;49.956;20.130;2023-11-21T13:25:37;8.38;;;5.70;;
75012;SDS011;63567;49.956;20.130;2023-11-21T13:28:05;8.30;;;5.57;;
75012;SDS011;63567;49.956;20.130;2023-11-21T13:30:31;7.78;;;5.70;;
75012;SDS011;63567;49.956;20.130;2023-11-21T13:33:03;9.20;;;6.10;;
75012;SDS011;63567;49.956;20.130;2023-11-21T13:35:33;8.15;;;5.55;;
75012;SDS011;63567;49.956;20.130;2023-11-21T13:38:06;9.13;;;5.90;;
75012;SDS011;63567;49.956;20.130;2023-11-21T13:40:34;10.00;;;5.95;;
75012;SDS011;63567;49.956;20.130;2023-11-21T13:43:07;7.88;;;5.70;;
75012;SDS011;63567;49.956;20.130;2023-11-21T13:45:35;8.90;;;5.65;;
75012;SDS011;63567;49.956;20.130;2023-11-21T13:48:07;9.77;;;6.82;;
75012;SDS011;63567;49.956;20.130;2023-11-21T13:50:45;8.25;;;5.78;;
75012;SDS011;63567;49.956;20.130;2023-11-21T13:53:20;8.95;;;5.88;;
75012;SDS011;63567;49.956;20.130;2023-11-21T13:55:49;7.90;;;6.43;;
75012;SDS011;63567;49.956;20.130;2023-11-21T13:58:16;11.15;;;6.93;;
75012;SDS011;63567;49.956;20.130;2023-11-21T14:00:48;10.13;;;6.78;;
75012;SDS011;63567;49.956;20.130;2023-11-21T14:03:21;9.30;;;6.53;;
75012;SDS011;63567;49.956;20.130;2023-11-21T14:05:50;9.63;;;6.68;;
75012;SDS011;63567;49.956;20.130;2023-11-21T14:08:21;10.48;;;6.60;;
75012;SDS011;63567;49.956;20.130;2023-11-21T14:10:48;13.30;;;7.20;;
75012;SDS011;63567;49.956;20.130;2023-11-21T14:13:20;10.68;;;8.05;;
75012;SDS011;63567;49.956;20.130;2023-11-21T14:15:48;9.63;;;7.88;;
75012;SDS011;63567;49.956;20.130;2023-11-21T14:18:16;11.50;;;8.38;;
75012;SDS011;63567;49.956;20.130;2023-11-21T14:20:42;12.15;;;7.55;;
75012;SDS011;63567;49.956;20.130;2023-11-21T14:23:09;11.35;;;6.93;;
75012;SDS011;63567;49.956;20.130;2023-11-21T14:25:35;12.13;;;8.02;;
75012;SDS011;63567;49.956;20.130;2023-11-21T14:28:02;11.38;;;7.68;;
75012;SDS011;63567;49.956;20.130;2023-11-21T14:30:28;14.00;;;9.18;;
75012;SDS011;63567;49.956;20.130;2023-11-21T14:32:56;11.68;;;8.93;;
75012;SDS011;63567;49.956;20.130;2023-11-21T14:35:24;13.73;;;9.63;;
75012;SDS011;63567;49.956;20.130;2023-11-21T14:37:50;16.48;;;9.50;;
75012;SDS011;63567;49.956;20.130;2023-11-21T14:40:15;15.70;;;9.63;;
75012;SDS011;63567;49.956;20.130;2023-11-21T14:42:41;13.20;;;8.43;;
75012;SDS011;63567;49.956;20.130;2023-11-21T14:45:08;11.85;;;7.95;;